Chillicothe, IA (52548)

2:30 PM CST on November 22, 2017 (GMT -0600)
Ottumwa Industrial | | Change Station

Elev 843 ft 41.11 °N, 92.45 °W | Updated 37 minutes ago

Clear
Clear
37 °F
Feels Like 33 °F
N
5
Wind Variable Wind from SSW

Today
High -- | Low -- °F
--% Chance of Precip.
Yesterday
High -- | Low -- °F
Precip. -- in
Pressure 30.30 in
Visibility 10.0 miles
Clouds Clear
Windchill 33 °F
Dew Point 12 °F
Humidity 36%
Rainfall 0.00 in
Snow Depth Not available.
7:06 AM 4:46 PM
Waxing Crescent, 16% visible
METAR KOTM 221953Z AUTO 21004KT 10SM CLR 03/M11 A3027 RMK AO2 PRESFR SLP259 T00281111
Pressure 30.30 in
Visibility 10.0 miles
Clouds Clear
Windchill 33 °F
Dew Point 12 °F
Humidity 36%
Rainfall 0.00 in
Snow Depth Not available.
7:06 AM 4:46 PM
Waxing Crescent, 16% visible
METAR KOTM 221953Z AUTO 21004KT 10SM CLR 03/M11 A3027 RMK AO2 PRESFR SLP259 T00281111

Get Severe Weather Alerts

Thanks for signing up!

Be on the lookout for a verification email in your inbox.

You'll start receiving the daily forecast at 6 AM.

×

10-Day Weather Forecast

Almanac

Astronomy

Nov. 22, 2017 Rise Set
Actual Time
Civil Twilight
Nautical Twilight
Astronomical Twilight
Moon
Length of Visible Light
Length of Day
Tomorrow will be .
, % of the Moon is Illuminated

Today's Extremes

State Highs State Lows

Community

WunderPhotos

Category 6

Welcome to Category 6. This is the collective home for Weather Underground's featured writeups by Dr. Jeff Masters (right), Bob Henson (left), Chris Burt, and other regular contributors.

Nearby

Air Quality

  Air Quality AQ Index Pollutant
Not available.

Snow Depth

Station Depth Elevation

Earthquake Activity

City Distance Mag. Time & Date
Minimum magnitude displayed is 2.5.

Coastal Water Temperatures

Place Temperature

Stations

Nearby Weather Stations

Station Location Temp. Windchill Dew Point Humidity Wind Precip. Elev Updated Type
                   

Watches & Warnings

There are currently no watches in effect.